createdAt,value
2023-09-10T00:01:01.896Z,65.50
2023-09-10T00:03:28.935Z,64.90
2023-09-10T00:05:56.121Z,65.00
2023-09-10T00:08:23.040Z,64.70
2023-09-10T00:10:50.165Z,64.70
2023-09-10T00:13:17.087Z,64.70
2023-09-10T00:15:44.185Z,64.60
2023-09-10T00:18:11.069Z,64.40
2023-09-10T00:20:37.961Z,64.40
2023-09-10T00:23:05.154Z,64.70
2023-09-10T00:25:32.226Z,64.90
2023-09-10T00:27:59.212Z,64.90
2023-09-10T00:30:28.893Z,65.00
2023-09-10T00:32:56.220Z,65.10
2023-09-10T00:35:23.188Z,65.90
2023-09-10T00:37:50.118Z,64.80
2023-09-10T00:40:17.263Z,64.80
2023-09-10T00:42:44.173Z,64.80
2023-09-10T00:45:13.401Z,64.70
2023-09-10T00:47:47.622Z,64.80
2023-09-10T00:50:15.667Z,65.00
2023-09-10T00:52:50.402Z,65.00
2023-09-10T00:55:18.302Z,65.20
2023-09-10T00:57:45.170Z,66.00
2023-09-10T01:00:13.633Z,65.20
2023-09-10T01:02:44.593Z,65.40
2023-09-10T01:05:13.059Z,65.40
2023-09-10T01:07:40.284Z,65.40
2023-09-10T01:10:08.819Z,65.20
2023-09-10T01:13:17.177Z,65.00
2023-09-10T01:16:03.158Z,65.30
2023-09-10T01:18:51.165Z,65.50
2023-09-10T01:21:35.515Z,65.50
2023-09-10T01:24:25.912Z,65.50
2023-09-10T01:26:59.698Z,65.40
2023-09-10T01:29:27.143Z,66.30
2023-09-10T01:32:06.212Z,65.40
2023-09-10T01:34:40.564Z,65.30
2023-09-10T01:37:21.683Z,65.20
2023-09-10T01:39:54.333Z,65.30
2023-09-10T01:42:23.522Z,65.30
2023-09-10T01:44:52.160Z,65.30
2023-09-10T01:47:19.653Z,65.40
2023-09-10T01:49:47.170Z,65.50
2023-09-10T01:52:14.028Z,65.60
2023-09-10T01:54:40.838Z,65.90
2023-09-10T01:57:07.629Z,66.10
2023-09-10T01:59:34.530Z,65.90
2023-09-10T02:02:01.487Z,65.80
2023-09-10T02:04:28.435Z,65.70
2023-09-10T02:06:55.291Z,65.90
2023-09-10T02:09:22.091Z,66.60
2023-09-10T02:11:49.220Z,66.90
2023-09-10T02:14:16.207Z,66.90
2023-09-10T02:16:43.211Z,67.40
2023-09-10T02:19:10.562Z,67.60
2023-09-10T02:21:37.371Z,67.10
2023-09-10T02:24:04.524Z,67.80
2023-09-10T02:26:31.468Z,66.70
2023-09-10T02:28:58.463Z,66.60
2023-09-10T02:31:26.530Z,66.60
2023-09-10T02:33:57.057Z,66.80
2023-09-10T02:36:23.982Z,67.00
2023-09-10T02:38:50.997Z,67.40
2023-09-10T02:41:18.106Z,67.40
2023-09-10T02:43:45.007Z,67.60
2023-09-10T02:46:11.902Z,67.60
2023-09-10T02:48:39.087Z,67.20
2023-09-10T02:51:06.161Z,67.10
2023-09-10T02:53:33.030Z,66.90
2023-09-10T02:56:03.829Z,67.00
2023-09-10T02:58:31.230Z,67.10
2023-09-10T03:01:05.026Z,67.20
2023-09-10T03:03:34.217Z,67.40
2023-09-10T03:06:01.856Z,68.70
2023-09-10T03:08:33.595Z,68.30
2023-09-10T03:11:04.743Z,68.70
2023-09-10T03:13:31.644Z,69.00
2023-09-10T03:15:58.525Z,69.40
2023-09-10T03:18:25.402Z,69.70
2023-09-10T03:20:52.212Z,70.20
2023-09-10T03:23:20.954Z,70.40
2023-09-10T03:25:48.039Z,70.70
2023-09-10T03:28:15.024Z,70.80
2023-09-10T03:30:41.987Z,70.80
2023-09-10T03:33:08.979Z,70.90
2023-09-10T03:35:35.949Z,70.90
2023-09-10T03:38:03.448Z,70.90
2023-09-10T03:40:30.391Z,70.80
2023-09-10T03:42:57.252Z,70.90
2023-09-10T03:45:24.242Z,70.90
2023-09-10T03:47:51.118Z,70.90
2023-09-10T03:50:18.046Z,71.00
2023-09-10T03:52:45.034Z,71.20
2023-09-10T03:55:12.256Z,71.30
2023-09-10T03:57:39.130Z,71.40
2023-09-10T04:00:07.826Z,71.40
2023-09-10T04:02:39.238Z,71.60
2023-09-10T04:05:07.051Z,71.60
2023-09-10T04:07:34.114Z,71.80
2023-09-10T04:10:00.919Z,71.70
2023-09-10T04:12:27.884Z,71.60
2023-09-10T04:14:54.813Z,71.60
2023-09-10T04:17:21.807Z,71.70
2023-09-10T04:19:48.841Z,71.60
2023-09-10T04:22:15.974Z,71.70
2023-09-10T04:24:43.008Z,71.60
2023-09-10T04:27:09.914Z,71.70
2023-09-10T04:29:36.838Z,71.70
2023-09-10T04:32:04.020Z,71.70
2023-09-10T04:34:30.949Z,71.70
2023-09-10T04:36:58.029Z,71.80
2023-09-10T04:39:24.994Z,71.80
2023-09-10T04:41:51.848Z,71.80
2023-09-10T04:44:20.381Z,71.90
2023-09-10T04:46:47.365Z,72.00
2023-09-10T04:49:14.419Z,72.00
2023-09-10T04:51:41.410Z,73.10
2023-09-10T04:54:08.284Z,72.20
2023-09-10T04:56:35.696Z,72.10
2023-09-10T04:59:03.038Z,72.30
2023-09-10T05:01:29.977Z,72.20
2023-09-10T05:03:57.184Z,72.30
2023-09-10T05:06:24.803Z,72.30
2023-09-10T05:08:51.742Z,72.40
2023-09-10T05:11:19.459Z,72.40
2023-09-10T05:13:46.541Z,72.30
2023-09-10T05:16:13.441Z,72.40
2023-09-10T05:18:40.829Z,72.40
2023-09-10T05:21:08.064Z,72.40
2023-09-10T05:23:35.535Z,72.60
2023-09-10T05:26:03.955Z,72.80
2023-09-10T05:28:31.744Z,72.80
2023-09-10T05:31:03.717Z,72.80
2023-09-10T05:33:30.945Z,72.80
2023-09-10T05:35:58.598Z,72.70
2023-09-10T05:38:27.780Z,72.70
2023-09-10T05:40:55.651Z,72.70
2023-09-10T05:43:22.576Z,72.70
2023-09-10T05:45:52.148Z,72.70
2023-09-10T05:48:19.098Z,72.70
2023-09-10T05:50:45.956Z,72.70
2023-09-10T05:53:12.845Z,72.60
2023-09-10T05:55:41.341Z,72.60
2023-09-10T05:58:09.460Z,72.50
2023-09-10T06:00:36.405Z,72.40
2023-09-10T06:03:05.067Z,72.40
2023-09-10T06:05:32.216Z,72.30
2023-09-10T06:07:59.359Z,72.00
2023-09-10T06:10:26.978Z,71.70
2023-09-10T06:12:54.232Z,71.40
2023-09-10T06:15:21.122Z,71.20
2023-09-10T06:17:48.133Z,70.80
2023-09-10T06:20:15.883Z,70.00
2023-09-10T06:22:42.959Z,69.40
2023-09-10T06:25:10.093Z,69.00
2023-09-10T06:27:36.973Z,68.70
2023-09-10T06:30:06.961Z,67.80
2023-09-10T06:32:34.388Z,67.20
2023-09-10T06:35:01.324Z,66.40
2023-09-10T06:37:28.425Z,65.80
2023-09-10T06:39:55.420Z,64.90
2023-09-10T06:42:22.394Z,64.70
2023-09-10T06:45:07.203Z,64.10
2023-09-10T06:47:34.039Z,63.40
2023-09-10T06:50:01.125Z,64.30
2023-09-10T06:52:28.001Z,63.50
2023-09-10T06:54:57.632Z,63.00
2023-09-10T06:57:24.962Z,62.60
2023-09-10T06:59:51.700Z,62.10
2023-09-10T07:02:18.634Z,61.70
2023-09-10T07:04:48.680Z,61.60
2023-09-10T07:07:17.130Z,61.30
2023-09-10T07:09:44.052Z,60.80
2023-09-10T07:12:11.037Z,60.20
2023-09-10T07:14:37.821Z,59.90
2023-09-10T07:17:06.017Z,58.50
2023-09-10T07:19:32.865Z,58.70
2023-09-10T07:21:59.630Z,58.40
2023-09-10T07:24:26.514Z,57.70
2023-09-10T07:26:53.601Z,56.90
2023-09-10T07:29:20.496Z,56.90
2023-09-10T07:31:47.920Z,57.50
2023-09-10T07:34:14.846Z,57.00
2023-09-10T07:36:41.878Z,56.90
2023-09-10T07:39:08.736Z,56.10
2023-09-10T07:41:35.933Z,56.50
2023-09-10T07:44:03.685Z,56.10
2023-09-10T07:46:31.240Z,55.70
2023-09-10T07:48:58.102Z,56.90
2023-09-10T07:51:25.196Z,55.90
2023-09-10T07:53:52.529Z,56.20
2023-09-10T07:56:19.442Z,54.90
2023-09-10T07:58:46.475Z,54.80
2023-09-10T08:01:13.450Z,54.20
2023-09-10T08:03:42.602Z,53.40
2023-09-10T08:06:09.694Z,53.40
2023-09-10T08:08:36.576Z,53.50
2023-09-10T08:11:03.549Z,53.30
2023-09-10T08:13:30.379Z,52.90
2023-09-10T08:15:57.247Z,53.40
2023-09-10T08:18:24.391Z,52.40
2023-09-10T08:20:51.351Z,51.80
2023-09-10T08:23:18.361Z,51.60
2023-09-10T08:25:45.408Z,50.20
2023-09-10T08:28:12.332Z,49.60
2023-09-10T08:30:39.186Z,48.70
2023-09-10T08:33:06.086Z,48.20
2023-09-10T08:35:49.931Z,48.60
2023-09-10T08:38:17.413Z,49.00
2023-09-10T08:40:56.560Z,48.40
2023-09-10T08:43:32.378Z,48.00
2023-09-10T08:45:59.434Z,48.50
2023-09-10T08:48:29.659Z,47.80
2023-09-10T08:50:57.578Z,47.90
2023-09-10T08:53:25.654Z,47.80
2023-09-10T08:55:53.787Z,47.70
2023-09-10T08:58:21.068Z,47.90
2023-09-10T09:00:51.197Z,48.10
2023-09-10T09:03:18.377Z,47.60
2023-09-10T09:05:49.810Z,48.30
2023-09-10T09:08:26.875Z,47.20
2023-09-10T09:10:56.103Z,47.00
2023-09-10T09:13:24.682Z,46.70
2023-09-10T09:15:53.136Z,46.50
2023-09-10T09:18:21.413Z,46.40
2023-09-10T09:20:52.045Z,46.80
2023-09-10T09:23:28.815Z,46.50
2023-09-10T09:25:58.146Z,46.30
2023-09-10T09:28:29.257Z,45.60
2023-09-10T09:30:56.227Z,45.90
2023-09-10T09:33:23.298Z,45.10
2023-09-10T09:35:50.094Z,45.50
2023-09-10T09:38:17.310Z,45.30
2023-09-10T09:40:46.275Z,45.70
2023-09-10T09:43:20.607Z,46.00
2023-09-10T09:45:48.305Z,46.20
2023-09-10T09:48:15.315Z,46.60
2023-09-10T09:50:42.148Z,46.70
2023-09-10T09:53:08.986Z,45.60
2023-09-10T09:55:36.456Z,44.80
2023-09-10T09:58:05.513Z,44.90
2023-09-10T10:00:37.737Z,44.90
2023-09-10T10:03:06.604Z,45.10
2023-09-10T10:05:36.399Z,45.70
2023-09-10T10:08:05.358Z,45.70
2023-09-10T10:10:34.724Z,45.00
2023-09-10T10:13:02.869Z,45.30
2023-09-10T10:15:31.165Z,45.20
2023-09-10T10:17:59.036Z,44.20
2023-09-10T10:20:26.110Z,44.60
2023-09-10T10:22:53.890Z,44.20
2023-09-10T10:25:21.736Z,44.20
2023-09-10T10:27:50.580Z,44.20
2023-09-10T10:30:18.087Z,42.90
2023-09-10T10:32:46.442Z,43.60
2023-09-10T10:35:14.046Z,43.60
2023-09-10T10:37:57.013Z,43.30
2023-09-10T10:40:52.987Z,42.60
2023-09-10T10:43:36.250Z,43.00
2023-09-10T10:46:05.616Z,43.10
2023-09-10T10:48:38.168Z,43.30
2023-09-10T10:51:08.949Z,42.50
2023-09-10T10:53:36.973Z,43.00
2023-09-10T10:56:05.350Z,42.50
2023-09-10T10:58:33.225Z,41.60
2023-09-10T11:01:00.559Z,42.00
2023-09-10T11:03:27.503Z,42.70
2023-09-10T11:05:54.750Z,42.00
2023-09-10T11:08:32.671Z,42.50
2023-09-10T11:11:02.675Z,42.40
2023-09-10T11:13:29.610Z,43.30
2023-09-10T11:16:05.721Z,42.40
2023-09-10T11:18:35.979Z,41.90
2023-09-10T11:21:43.006Z,40.40
2023-09-10T11:24:09.826Z,41.70
2023-09-10T11:26:36.719Z,40.40
2023-09-10T11:29:05.727Z,40.00
2023-09-10T11:31:39.833Z,38.80
2023-09-10T11:34:19.212Z,38.40
2023-09-10T11:36:50.821Z,39.10
2023-09-10T11:39:19.265Z,38.80
2023-09-10T11:41:54.250Z,38.00
2023-09-10T11:44:21.532Z,37.90
2023-09-10T11:46:49.091Z,36.80
2023-09-10T11:49:16.797Z,37.60
2023-09-10T11:51:48.791Z,37.30
2023-09-10T11:54:21.052Z,38.40
2023-09-10T11:56:50.288Z,37.90
2023-09-10T11:59:18.551Z,37.90
2023-09-10T12:01:45.401Z,36.60
2023-09-10T12:04:13.155Z,36.50
2023-09-10T12:06:40.613Z,37.60
2023-09-10T12:09:07.450Z,36.70
2023-09-10T12:11:36.257Z,35.90
2023-09-10T12:14:03.729Z,35.50
2023-09-10T12:16:31.091Z,34.60
2023-09-10T12:18:58.327Z,35.60
2023-09-10T12:21:25.500Z,34.90
2023-09-10T12:23:52.834Z,35.10
2023-09-10T12:26:20.853Z,35.60
2023-09-10T12:28:53.353Z,34.70
2023-09-10T12:31:21.595Z,34.50
2023-09-10T12:33:48.521Z,34.60
2023-09-10T12:36:16.108Z,34.50
2023-09-10T12:38:43.362Z,35.10
2023-09-10T12:41:10.922Z,34.90
2023-09-10T12:43:38.049Z,34.90
2023-09-10T12:46:05.336Z,34.70
2023-09-10T12:48:32.996Z,35.10
2023-09-10T12:50:59.946Z,34.80
2023-09-10T12:53:27.591Z,36.30
2023-09-10T12:55:57.579Z,35.50
2023-09-10T12:58:24.480Z,36.60
2023-09-10T13:01:00.393Z,36.30
2023-09-10T13:03:29.961Z,37.00
2023-09-10T13:05:57.735Z,37.20
2023-09-10T13:08:24.740Z,37.40
2023-09-10T13:10:51.702Z,38.60
2023-09-10T13:13:18.548Z,38.10
2023-09-10T13:15:45.351Z,39.10
2023-09-10T13:18:12.511Z,38.90
2023-09-10T13:20:39.898Z,38.80
2023-09-10T13:23:06.854Z,39.40
2023-09-10T13:25:33.773Z,39.80
2023-09-10T13:28:00.656Z,39.50
2023-09-10T13:30:27.515Z,41.20
2023-09-10T13:32:54.456Z,40.90
2023-09-10T13:35:25.866Z,40.40
2023-09-10T13:37:52.980Z,39.80
2023-09-10T13:40:19.836Z,39.80
2023-09-10T13:42:46.693Z,40.40
2023-09-10T13:45:13.529Z,40.80
2023-09-10T13:47:40.661Z,40.70
2023-09-10T13:50:08.239Z,40.60
2023-09-10T13:52:35.116Z,40.70
2023-09-10T13:55:02.069Z,40.60
2023-09-10T13:57:28.917Z,39.90
2023-09-10T13:59:55.794Z,40.50
2023-09-10T14:02:22.762Z,41.30
2023-09-10T14:04:50.073Z,42.90
2023-09-10T14:07:16.906Z,41.30
2023-09-10T14:09:43.804Z,41.20
2023-09-10T14:12:10.660Z,42.50
2023-09-10T14:14:37.651Z,40.40
2023-09-10T14:17:05.078Z,41.00
2023-09-10T14:19:32.003Z,40.60
2023-09-10T14:21:58.851Z,38.90
2023-09-10T14:24:28.994Z,39.40
2023-09-10T14:26:56.588Z,40.70
2023-09-10T14:29:23.989Z,41.20
2023-09-10T14:31:51.343Z,42.30
2023-09-10T14:34:18.295Z,39.70
2023-09-10T14:36:45.223Z,39.10
2023-09-10T14:39:14.810Z,41.10
2023-09-10T14:41:42.031Z,40.50
2023-09-10T14:44:09.543Z,41.70
2023-09-10T14:46:37.993Z,41.40
2023-09-10T14:49:04.944Z,42.20
2023-09-10T14:51:32.028Z,42.50
2023-09-10T14:53:58.970Z,41.20
2023-09-10T14:56:26.071Z,41.50
2023-09-10T14:58:52.902Z,41.50
2023-09-10T15:01:21.437Z,39.80
2023-09-10T15:03:49.082Z,40.10
2023-09-10T15:06:16.101Z,39.50
2023-09-10T15:08:43.065Z,40.20
2023-09-10T15:11:10.091Z,40.90
2023-09-10T15:13:36.943Z,40.30
2023-09-10T15:16:04.252Z,41.30
2023-09-10T15:18:31.247Z,40.90
2023-09-10T15:20:58.148Z,42.90
2023-09-10T15:23:25.355Z,41.20
2023-09-10T15:25:52.198Z,40.90
2023-09-10T15:28:18.972Z,41.10
2023-09-10T15:30:46.224Z,40.80
2023-09-10T15:33:13.237Z,41.30
2023-09-10T15:35:40.265Z,41.20
2023-09-10T15:38:07.187Z,41.30
2023-09-10T15:40:35.548Z,41.10
2023-09-10T15:43:06.198Z,40.90
2023-09-10T15:45:33.111Z,41.20
2023-09-10T15:47:59.985Z,41.70
2023-09-10T15:50:27.034Z,41.70
2023-09-10T15:52:53.998Z,41.30
2023-09-10T15:55:21.351Z,42.10
2023-09-10T15:57:48.916Z,43.50
2023-09-10T16:00:16.246Z,42.20
2023-09-10T16:02:43.238Z,43.40
2023-09-10T16:05:10.676Z,43.90
2023-09-10T16:07:38.011Z,42.20
2023-09-10T16:10:05.839Z,42.40
2023-09-10T16:12:33.902Z,43.20
2023-09-10T16:15:01.423Z,43.30
2023-09-10T16:17:28.567Z,43.70
2023-09-10T16:19:55.780Z,43.80
2023-09-10T16:22:30.392Z,44.50
2023-09-10T16:24:57.888Z,43.10
2023-09-10T16:27:25.005Z,43.70
2023-09-10T16:29:51.900Z,43.70
2023-09-10T16:32:19.251Z,44.20
2023-09-10T16:34:46.142Z,44.70
2023-09-10T16:37:15.735Z,44.80
2023-09-10T16:39:42.602Z,45.50
2023-09-10T16:42:09.514Z,45.00
2023-09-10T16:44:36.335Z,45.20
2023-09-10T16:47:03.693Z,46.10
2023-09-10T16:49:30.600Z,46.30
2023-09-10T16:51:57.470Z,46.30
2023-09-10T16:54:24.492Z,45.30
2023-09-10T16:56:51.390Z,46.30
2023-09-10T16:59:18.340Z,46.60
2023-09-10T17:01:45.341Z,48.10
2023-09-10T17:04:12.459Z,47.40
2023-09-10T17:06:39.516Z,48.90
2023-09-10T17:09:06.447Z,49.10
2023-09-10T17:11:33.471Z,48.30
2023-09-10T17:14:00.452Z,49.80
2023-09-10T17:16:28.177Z,51.00
2023-09-10T17:18:55.456Z,50.20
2023-09-10T17:21:22.399Z,50.50
2023-09-10T17:23:49.395Z,50.10
2023-09-10T17:26:19.254Z,51.50
2023-09-10T17:28:47.392Z,52.00
2023-09-10T17:31:16.042Z,50.80
2023-09-10T17:33:45.166Z,50.90
2023-09-10T17:36:12.439Z,50.20
2023-09-10T17:38:40.830Z,50.20
2023-09-10T17:41:07.896Z,52.00
2023-09-10T17:43:34.786Z,52.80
2023-09-10T17:46:01.699Z,52.90
2023-09-10T17:48:28.886Z,52.80
2023-09-10T17:50:55.816Z,53.00
2023-09-10T17:53:22.735Z,53.00
2023-09-10T17:55:49.700Z,52.90
2023-09-10T17:58:16.596Z,53.00
2023-09-10T18:00:43.509Z,53.10
2023-09-10T18:03:13.073Z,53.30
2023-09-10T18:05:40.140Z,53.60
2023-09-10T18:08:07.188Z,53.70
2023-09-10T18:10:34.119Z,53.90
2023-09-10T18:13:01.037Z,54.10
2023-09-10T18:15:27.903Z,54.20
2023-09-10T18:17:54.922Z,54.20
2023-09-10T18:20:21.864Z,53.70
2023-09-10T18:22:48.785Z,54.00
2023-09-10T18:25:15.739Z,54.20
2023-09-10T18:27:42.551Z,54.50
2023-09-10T18:30:10.106Z,54.20
2023-09-10T18:32:37.097Z,54.40
2023-09-10T18:35:04.321Z,54.60
2023-09-10T18:37:31.227Z,55.80
2023-09-10T18:39:58.156Z,54.90
2023-09-10T18:42:25.168Z,55.00
2023-09-10T18:44:52.069Z,55.40
2023-09-10T18:47:19.003Z,55.30
2023-09-10T18:49:45.919Z,55.50
2023-09-10T18:52:15.479Z,55.80
2023-09-10T18:54:43.645Z,56.00
2023-09-10T18:57:14.862Z,56.30
2023-09-10T18:59:42.733Z,56.40
2023-09-10T19:02:09.619Z,56.60
2023-09-10T19:04:37.824Z,56.60
2023-09-10T19:07:05.979Z,56.90
2023-09-10T19:09:32.856Z,57.10
2023-09-10T19:11:59.760Z,57.30
2023-09-10T19:14:26.665Z,57.60
2023-09-10T19:16:53.706Z,58.00
2023-09-10T19:19:20.783Z,58.20
2023-09-10T19:21:47.981Z,58.30
2023-09-10T19:24:15.466Z,58.40
2023-09-10T19:26:42.876Z,58.40
2023-09-10T19:29:10.157Z,58.50
2023-09-10T19:31:37.155Z,58.70
2023-09-10T19:34:05.390Z,58.80
2023-09-10T19:36:35.089Z,58.60
2023-09-10T19:39:07.647Z,58.80
2023-09-10T19:41:35.848Z,59.10
2023-09-10T19:44:06.399Z,59.10
2023-09-10T19:46:33.495Z,59.30
2023-09-10T19:49:00.440Z,59.20
2023-09-10T19:51:27.353Z,58.90
2023-09-10T19:53:54.392Z,58.90
2023-09-10T19:56:23.328Z,58.60
2023-09-10T19:59:07.492Z,58.80
2023-09-10T20:01:40.524Z,58.70
2023-09-10T20:04:07.674Z,58.80
2023-09-10T20:06:35.828Z,58.50
2023-09-10T20:09:04.147Z,58.80
2023-09-10T20:11:32.183Z,59.00
2023-09-10T20:13:59.731Z,58.90
2023-09-10T20:16:27.559Z,59.90
2023-09-10T20:18:54.918Z,58.80
2023-09-10T20:21:23.041Z,58.90
2023-09-10T20:23:50.116Z,58.90
2023-09-10T20:26:17.304Z,59.00
2023-09-10T20:28:44.362Z,59.10
2023-09-10T20:31:11.351Z,59.20
2023-09-10T20:33:38.884Z,59.30
2023-09-10T20:36:08.767Z,59.20
2023-09-10T20:38:36.315Z,59.50
2023-09-10T20:41:13.483Z,59.70
2023-09-10T20:43:41.067Z,59.70
2023-09-10T20:46:09.014Z,59.90
2023-09-10T20:48:36.051Z,59.90
2023-09-10T20:51:07.714Z,60.10
2023-09-10T20:53:35.794Z,60.00
2023-09-10T20:56:02.825Z,60.30
2023-09-10T20:58:30.679Z,60.40
2023-09-10T21:00:59.647Z,60.50
2023-09-10T21:03:29.666Z,60.60
2023-09-10T21:06:00.987Z,60.60
2023-09-10T21:08:28.862Z,60.60
2023-09-10T21:10:56.795Z,60.70
2023-09-10T21:13:23.899Z,60.70
2023-09-10T21:15:50.914Z,60.90
2023-09-10T21:18:18.310Z,61.00
2023-09-10T21:20:45.430Z,60.80
2023-09-10T21:23:12.419Z,60.80
2023-09-10T21:25:41.855Z,61.10
2023-09-10T21:28:10.121Z,61.10
2023-09-10T21:30:37.423Z,61.10
2023-09-10T21:33:05.151Z,61.30
2023-09-10T21:35:32.431Z,61.20
2023-09-10T21:37:59.368Z,61.60
2023-09-10T21:40:26.248Z,61.80
2023-09-10T21:42:53.378Z,61.80
2023-09-10T21:45:20.245Z,62.00
2023-09-10T21:47:47.340Z,62.10
2023-09-10T21:50:14.292Z,61.90
2023-09-10T21:52:41.174Z,62.00
2023-09-10T21:55:08.555Z,62.20
2023-09-10T21:57:35.415Z,62.30
2023-09-10T22:00:04.234Z,62.20
2023-09-10T22:02:31.688Z,62.40
2023-09-10T22:04:59.200Z,62.50
2023-09-10T22:07:26.423Z,62.50
2023-09-10T22:09:55.116Z,62.50
2023-09-10T22:12:22.175Z,62.70
2023-09-10T22:14:49.073Z,62.90
2023-09-10T22:17:16.091Z,63.00
2023-09-10T22:19:43.184Z,63.10
2023-09-10T22:22:10.070Z,63.20
2023-09-10T22:24:37.490Z,63.10
2023-09-10T22:27:04.843Z,63.00
2023-09-10T22:29:31.833Z,63.00
2023-09-10T22:31:58.889Z,63.00
2023-09-10T22:34:25.745Z,63.10
2023-09-10T22:36:54.752Z,63.10
2023-09-10T22:39:21.688Z,63.10
2023-09-10T22:41:48.566Z,63.20
2023-09-10T22:44:15.537Z,63.00
2023-09-10T22:46:42.382Z,63.00
2023-09-10T22:49:10.135Z,63.10
2023-09-10T22:51:38.670Z,63.20
2023-09-10T22:54:05.735Z,63.50
2023-09-10T22:56:32.813Z,63.40
2023-09-10T22:58:59.880Z,63.60
2023-09-10T23:01:27.730Z,63.50
2023-09-10T23:03:54.975Z,63.40
2023-09-10T23:06:22.646Z,63.30
2023-09-10T23:08:49.582Z,63.50
2023-09-10T23:11:16.587Z,63.60
2023-09-10T23:13:43.586Z,63.70
2023-09-10T23:16:10.621Z,63.80
2023-09-10T23:18:37.719Z,63.80
2023-09-10T23:21:04.553Z,63.80
2023-09-10T23:23:31.521Z,63.60
2023-09-10T23:25:58.586Z,63.20
2023-09-10T23:28:25.428Z,63.20
2023-09-10T23:30:52.267Z,63.20
2023-09-10T23:33:19.311Z,63.10
2023-09-10T23:35:46.268Z,63.00
2023-09-10T23:38:13.420Z,63.00
2023-09-10T23:40:40.363Z,63.00
2023-09-10T23:43:07.502Z,63.00
2023-09-10T23:45:34.362Z,63.10
2023-09-10T23:48:01.626Z,63.10
2023-09-10T23:50:28.708Z,63.40
2023-09-10T23:52:55.564Z,63.40
2023-09-10T23:55:22.517Z,63.40
2023-09-10T23:57:49.361Z,63.60
